createdAt,value
2022-09-28T00:00:10.292Z,48.13
2022-09-28T00:02:36.603Z,48.18
2022-09-28T00:05:02.954Z,48.00
2022-09-28T00:07:29.532Z,48.09
2022-09-28T00:09:55.741Z,48.03
2022-09-28T00:12:22.506Z,48.54
2022-09-28T00:14:48.715Z,48.17
2022-09-28T00:17:16.749Z,48.25
2022-09-28T00:19:44.730Z,48.12
2022-09-28T00:22:11.055Z,48.10
2022-09-28T00:24:37.261Z,48.10
2022-09-28T00:27:04.068Z,48.26
2022-09-28T00:29:31.666Z,48.22
2022-09-28T00:32:03.001Z,48.28
2022-09-28T00:34:33.316Z,48.03
2022-09-28T00:37:00.105Z,48.33
2022-09-28T00:39:27.048Z,48.26
2022-09-28T00:41:53.884Z,48.22
2022-09-28T00:44:25.928Z,48.26
2022-09-28T00:47:01.535Z,48.47
2022-09-28T00:49:45.249Z,48.42
2022-09-28T00:52:14.813Z,48.48
2022-09-28T00:54:43.126Z,48.13
2022-09-28T00:57:09.477Z,47.72
2022-09-28T00:59:35.715Z,47.74
2022-09-28T01:02:02.474Z,47.78
2022-09-28T01:04:30.182Z,47.65
2022-09-28T01:06:57.142Z,47.62
2022-09-28T01:09:24.948Z,47.96
2022-09-28T01:11:51.513Z,48.02
2022-09-28T01:14:19.000Z,48.18
2022-09-28T01:16:54.994Z,47.80
2022-09-28T01:19:39.999Z,48.02
2022-09-28T01:22:06.188Z,47.88
2022-09-28T01:24:38.498Z,47.93
2022-09-28T01:27:10.283Z,48.17
2022-09-28T01:29:36.718Z,47.81
2022-09-28T01:32:11.613Z,48.06
2022-09-28T01:34:41.019Z,48.11
2022-09-28T01:37:09.738Z,47.85
2022-09-28T01:39:39.446Z,47.89
2022-09-28T01:42:09.271Z,48.28
2022-09-28T01:44:39.705Z,48.39
2022-09-28T01:47:09.188Z,48.18
2022-09-28T01:49:44.697Z,48.09
2022-09-28T01:52:15.691Z,48.16
2022-09-28T01:54:44.545Z,47.85
2022-09-28T01:57:16.949Z,48.29
2022-09-28T01:59:47.865Z,48.30
2022-09-28T02:02:19.421Z,48.40
2022-09-28T02:04:49.435Z,48.19
2022-09-28T02:07:20.307Z,48.10
2022-09-28T02:09:50.069Z,48.20
2022-09-28T02:12:20.060Z,48.18
2022-09-28T02:14:48.864Z,47.86
2022-09-28T02:17:16.091Z,48.17
2022-09-28T02:19:42.766Z,48.00
2022-09-28T02:22:23.293Z,48.18
2022-09-28T02:24:49.589Z,48.21
2022-09-28T02:27:17.693Z,48.15
2022-09-28T02:29:43.997Z,48.50
2022-09-28T02:32:10.468Z,48.30
2022-09-28T02:34:36.737Z,48.41
2022-09-28T02:37:03.407Z,48.58
2022-09-28T02:39:29.616Z,48.42
2022-09-28T02:41:55.863Z,48.38
2022-09-28T02:44:35.380Z,48.20
2022-09-28T02:47:09.990Z,48.45
2022-09-28T02:49:49.744Z,48.54
2022-09-28T02:52:36.412Z,48.30
2022-09-28T02:55:12.842Z,48.32
2022-09-28T02:57:44.855Z,48.18
2022-09-28T03:00:14.950Z,48.24
2022-09-28T03:02:50.057Z,48.39
2022-09-28T03:05:29.990Z,48.24
2022-09-28T03:08:03.909Z,48.18
2022-09-28T03:10:33.458Z,48.48
2022-09-28T03:13:00.534Z,48.27
2022-09-28T03:15:28.729Z,48.38
2022-09-28T03:17:55.705Z,48.29
2022-09-28T03:20:21.904Z,48.46
2022-09-28T03:23:05.949Z,48.44
2022-09-28T03:25:34.318Z,48.40
2022-09-28T03:28:00.615Z,48.51
2022-09-28T03:30:26.858Z,48.39
2022-09-28T03:33:00.146Z,48.35
2022-09-28T03:35:26.632Z,48.53
2022-09-28T03:37:55.993Z,48.22
2022-09-28T03:40:22.405Z,48.46
2022-09-28T03:42:48.746Z,48.55
2022-09-28T03:45:15.004Z,48.56
2022-09-28T03:47:45.073Z,48.43
2022-09-28T03:50:11.289Z,48.81
2022-09-28T03:52:37.486Z,48.71
2022-09-28T03:55:03.807Z,48.88
2022-09-28T03:57:30.013Z,48.68
2022-09-28T03:59:56.207Z,48.70
2022-09-28T04:02:22.454Z,48.44
2022-09-28T04:04:48.700Z,48.65
2022-09-28T04:07:14.952Z,48.47
2022-09-28T04:09:41.477Z,48.46
2022-09-28T04:12:07.682Z,48.44
2022-09-28T04:14:33.896Z,48.63
2022-09-28T04:17:00.115Z,48.61
2022-09-28T04:19:26.792Z,48.56
2022-09-28T04:21:53.006Z,48.43
2022-09-28T04:24:20.213Z,48.71
2022-09-28T04:26:46.412Z,48.54
2022-09-28T04:29:15.902Z,48.64
2022-09-28T04:31:46.697Z,48.50
2022-09-28T04:34:14.808Z,48.55
2022-09-28T04:36:41.002Z,48.64
2022-09-28T04:39:07.261Z,48.45
2022-09-28T04:41:33.461Z,48.53
2022-09-28T04:43:59.847Z,48.27
2022-09-28T04:46:26.201Z,48.67
2022-09-28T04:48:52.385Z,48.37
2022-09-28T04:51:18.634Z,48.45
2022-09-28T04:53:44.874Z,48.46
2022-09-28T04:56:12.526Z,48.28
2022-09-28T04:58:39.514Z,48.52
2022-09-28T05:01:07.133Z,48.71
2022-09-28T05:03:34.085Z,48.64
2022-09-28T05:06:01.058Z,48.86
2022-09-28T05:08:27.546Z,48.78
2022-09-28T05:11:01.294Z,48.98
2022-09-28T05:13:28.020Z,48.70
2022-09-28T05:15:58.188Z,48.81
2022-09-28T05:18:27.236Z,48.73
2022-09-28T05:20:53.494Z,48.65
2022-09-28T05:23:19.747Z,48.80
2022-09-28T05:25:45.990Z,48.74
2022-09-28T05:28:12.318Z,48.67
2022-09-28T05:30:38.606Z,48.58
2022-09-28T05:33:04.973Z,48.75
2022-09-28T05:35:31.558Z,48.72
2022-09-28T05:38:02.177Z,48.68
2022-09-28T05:40:28.423Z,48.66
2022-09-28T05:42:58.513Z,48.57
2022-09-28T05:45:24.724Z,48.56
2022-09-28T05:47:50.938Z,48.60
2022-09-28T05:50:17.220Z,48.40
2022-09-28T05:52:44.269Z,48.77
2022-09-28T05:55:10.651Z,48.58
2022-09-28T05:57:36.961Z,48.55
2022-09-28T06:00:04.544Z,48.58
2022-09-28T06:02:30.787Z,48.52
2022-09-28T06:04:57.044Z,48.59
2022-09-28T06:07:23.761Z,48.78
2022-09-28T06:09:49.998Z,48.73
2022-09-28T06:12:16.402Z,48.61
2022-09-28T06:14:42.617Z,48.71
2022-09-28T06:17:08.940Z,48.82
2022-09-28T06:19:35.181Z,48.66
2022-09-28T06:22:01.389Z,48.68
2022-09-28T06:24:28.049Z,48.85
2022-09-28T06:26:54.306Z,48.36
2022-09-28T06:29:20.563Z,48.71
2022-09-28T06:31:47.142Z,48.62
2022-09-28T06:34:13.652Z,48.65
2022-09-28T06:36:40.288Z,48.83
2022-09-28T06:39:06.855Z,48.83
2022-09-28T06:41:33.198Z,48.94
2022-09-28T06:43:59.530Z,48.82
2022-09-28T06:46:25.908Z,48.98
2022-09-28T06:48:52.432Z,48.89
2022-09-28T06:51:18.673Z,48.92
2022-09-28T06:53:44.868Z,48.78
2022-09-28T06:56:11.513Z,48.93
2022-09-28T06:58:37.786Z,49.07
2022-09-28T07:01:04.394Z,48.92
2022-09-28T07:03:30.700Z,48.91
2022-09-28T07:05:56.938Z,48.83
2022-09-28T07:08:28.599Z,49.13
2022-09-28T07:10:57.952Z,48.96
2022-09-28T07:13:46.364Z,49.07
2022-09-28T07:16:12.685Z,49.32
2022-09-28T07:18:39.024Z,49.01
2022-09-28T07:21:08.078Z,49.05
2022-09-28T07:23:47.873Z,48.92
2022-09-28T07:26:21.971Z,48.95
2022-09-28T07:28:49.652Z,49.22
2022-09-28T07:31:16.009Z,49.35
2022-09-28T07:33:42.316Z,49.26
2022-09-28T07:36:08.715Z,49.40
2022-09-28T07:38:35.060Z,49.17
2022-09-28T07:41:14.672Z,48.88
2022-09-28T07:43:41.446Z,48.89
2022-09-28T07:46:10.870Z,48.71
2022-09-28T07:48:39.032Z,48.68
2022-09-28T07:51:05.334Z,48.35
2022-09-28T07:53:31.738Z,48.23
2022-09-28T07:56:09.289Z,48.45
2022-09-28T07:58:36.940Z,48.42
2022-09-28T08:01:04.915Z,48.54
2022-09-28T08:03:31.206Z,48.92
2022-09-28T08:06:02.085Z,48.66
2022-09-28T08:08:29.959Z,48.83
2022-09-28T08:10:57.130Z,48.52
2022-09-28T08:13:27.064Z,48.71
2022-09-28T08:15:53.618Z,48.55
2022-09-28T08:18:20.475Z,48.87
2022-09-28T08:21:05.615Z,48.78
2022-09-28T08:23:31.932Z,48.65
2022-09-28T08:25:58.304Z,48.85
2022-09-28T08:28:24.774Z,48.75
2022-09-28T08:30:51.309Z,48.91
2022-09-28T08:33:20.206Z,48.68
2022-09-28T08:35:46.698Z,48.81
2022-09-28T08:38:13.634Z,48.72
2022-09-28T08:40:58.780Z,48.52
2022-09-28T08:43:31.164Z,48.70
2022-09-28T08:45:59.017Z,48.54
2022-09-28T08:49:01.112Z,48.92
2022-09-28T08:51:55.039Z,48.92
2022-09-28T08:54:35.590Z,48.64
2022-09-28T08:57:05.555Z,48.59
2022-09-28T08:59:40.210Z,48.37
2022-09-28T09:02:16.893Z,48.34
2022-09-28T09:04:43.296Z,48.28
2022-09-28T09:07:22.431Z,48.86
2022-09-28T09:10:07.227Z,48.70
2022-09-28T09:15:38.810Z,48.44
2022-09-28T09:18:07.818Z,48.14
2022-09-28T09:20:34.014Z,48.06
2022-09-28T09:23:12.378Z,48.32
2022-09-28T09:25:38.764Z,48.08
2022-09-28T09:28:14.125Z,48.26
2022-09-28T09:30:57.126Z,48.39
2022-09-28T09:33:46.730Z,48.23
2022-09-28T09:36:28.574Z,48.26
2022-09-28T09:39:13.449Z,48.42
2022-09-28T09:41:46.601Z,48.68
2022-09-28T09:44:12.821Z,48.67
2022-09-28T09:46:47.606Z,48.68
2022-09-28T09:49:13.792Z,48.77
2022-09-28T09:51:44.824Z,48.64
2022-09-28T09:54:30.089Z,48.38
2022-09-28T09:57:05.698Z,48.30
2022-09-28T09:59:37.688Z,48.29
2022-09-28T10:02:13.277Z,48.62
2022-09-28T10:04:41.488Z,48.34
2022-09-28T10:07:09.598Z,48.21
2022-09-28T10:09:45.632Z,48.17
2022-09-28T10:12:15.814Z,48.41
2022-09-28T10:14:42.439Z,48.43
2022-09-28T10:17:11.999Z,48.29
2022-09-28T10:19:38.202Z,48.54
2022-09-28T10:22:05.708Z,48.57
2022-09-28T10:24:36.561Z,48.59
2022-09-28T10:27:07.947Z,49.00
2022-09-28T10:29:41.170Z,49.09
2022-09-28T10:32:17.902Z,49.05
2022-09-28T10:34:48.732Z,49.01
2022-09-28T10:37:17.993Z,48.55
2022-09-28T10:39:53.138Z,49.11
2022-09-28T10:42:37.264Z,48.76
2022-09-28T10:45:19.897Z,48.56
2022-09-28T10:47:46.303Z,48.32
2022-09-28T10:50:30.868Z,48.42
2022-09-28T10:53:17.748Z,48.03
2022-09-28T10:55:55.788Z,48.18
2022-09-28T10:58:26.909Z,48.17
2022-09-28T11:00:59.657Z,48.47
2022-09-28T11:03:27.140Z,48.36
2022-09-28T11:05:57.756Z,47.87
2022-09-28T11:08:29.395Z,48.03
2022-09-28T11:11:11.960Z,47.79
2022-09-28T11:13:42.871Z,47.77
2022-09-28T11:16:18.815Z,48.01
2022-09-28T11:18:45.106Z,47.79
2022-09-28T11:21:15.971Z,47.70
2022-09-28T11:23:54.580Z,47.66
2022-09-28T11:26:21.660Z,47.97
2022-09-28T11:28:51.430Z,47.71
2022-09-28T11:31:24.781Z,47.77
2022-09-28T11:33:51.017Z,47.75
2022-09-28T11:36:29.651Z,48.11
2022-09-28T11:38:55.884Z,48.00
2022-09-28T11:41:22.049Z,47.90
2022-09-28T11:43:48.242Z,47.81
2022-09-28T11:46:19.094Z,47.86
2022-09-28T11:48:47.433Z,48.08
2022-09-28T11:51:20.242Z,47.76
2022-09-28T11:53:53.355Z,47.90
2022-09-28T11:56:37.616Z,47.83
2022-09-28T11:59:20.409Z,47.83
2022-09-28T12:01:46.599Z,47.80
2022-09-28T12:04:19.719Z,47.99
2022-09-28T12:07:01.361Z,47.40
2022-09-28T12:09:32.725Z,47.99
2022-09-28T12:12:02.302Z,47.87
2022-09-28T12:14:30.874Z,47.93
2022-09-28T12:17:07.731Z,47.98
2022-09-28T12:19:41.091Z,47.76
2022-09-28T12:22:15.799Z,47.66
2022-09-28T12:24:54.309Z,47.75
2022-09-28T12:27:23.656Z,47.70
2022-09-28T12:30:12.975Z,47.72
2022-09-28T12:32:39.276Z,47.61
2022-09-28T12:35:19.666Z,47.74
2022-09-28T12:37:52.660Z,47.73
2022-09-28T12:40:31.715Z,47.66
2022-09-28T12:42:58.058Z,47.73
2022-09-28T12:45:42.966Z,48.02
2022-09-28T12:48:38.151Z,47.41
2022-09-28T12:51:14.956Z,47.23
2022-09-28T12:54:13.836Z,47.12
2022-09-28T12:56:57.781Z,46.86
2022-09-28T12:59:29.080Z,46.96
2022-09-28T13:01:58.400Z,46.81
2022-09-28T13:04:32.478Z,46.94
2022-09-28T13:06:58.701Z,46.78
2022-09-28T13:09:26.065Z,46.58
2022-09-28T13:11:55.463Z,46.61
2022-09-28T13:14:37.679Z,46.46
2022-09-28T13:17:22.979Z,46.32
2022-09-28T13:19:58.467Z,46.49
2022-09-28T13:22:30.150Z,46.76
2022-09-28T13:24:59.352Z,46.83
2022-09-28T13:27:36.967Z,46.89
2022-09-28T13:30:06.573Z,46.66
2022-09-28T13:32:33.774Z,46.92
2022-09-28T13:35:02.106Z,46.66
2022-09-28T13:37:29.004Z,46.52
2022-09-28T13:39:56.768Z,46.61
2022-09-28T13:42:39.938Z,46.60
2022-09-28T13:45:24.856Z,46.37
2022-09-28T13:47:51.512Z,46.18
2022-09-28T13:50:23.473Z,46.26
2022-09-28T13:52:56.424Z,46.03
2022-09-28T13:55:23.168Z,46.27
2022-09-28T13:57:52.222Z,46.13
2022-09-28T14:00:23.646Z,46.01
2022-09-28T14:02:55.945Z,46.02
2022-09-28T14:05:51.474Z,46.17
2022-09-28T14:08:23.856Z,45.89
2022-09-28T14:10:51.723Z,45.95
2022-09-28T14:13:36.812Z,46.02
2022-09-28T14:16:18.413Z,46.34
2022-09-28T14:18:48.383Z,46.37
2022-09-28T14:21:33.374Z,46.07
2022-09-28T14:24:13.645Z,46.22
2022-09-28T14:26:58.705Z,45.95
2022-09-28T14:29:28.919Z,46.34
2022-09-28T14:31:56.828Z,46.59
2022-09-28T14:34:34.189Z,46.38
2022-09-28T14:37:20.984Z,46.33
2022-09-28T14:40:06.150Z,46.79
2022-09-28T14:42:32.540Z,46.26
2022-09-28T14:45:05.409Z,46.38
2022-09-28T14:47:33.738Z,46.22
2022-09-28T14:50:01.258Z,46.25
2022-09-28T14:52:46.217Z,46.23
2022-09-28T14:55:17.241Z,46.07
2022-09-28T14:57:43.610Z,45.91
2022-09-28T15:00:20.241Z,46.24
2022-09-28T15:02:48.779Z,46.19
2022-09-28T15:05:21.447Z,46.30
2022-09-28T15:07:52.320Z,46.30
2022-09-28T15:10:32.878Z,46.05
2022-09-28T15:13:20.682Z,46.02
2022-09-28T15:15:50.304Z,46.27
2022-09-28T15:18:35.417Z,46.09
2022-09-28T15:21:01.914Z,46.16
2022-09-28T15:23:41.650Z,46.19
2022-09-28T15:26:19.678Z,45.97
2022-09-28T15:28:46.012Z,45.98
2022-09-28T15:31:18.245Z,45.99
2022-09-28T15:34:03.165Z,45.94
2022-09-28T15:36:30.582Z,45.86
2022-09-28T15:41:26.504Z,45.80
2022-09-28T15:44:11.132Z,45.55
2022-09-28T15:46:39.412Z,45.44
2022-09-28T15:49:06.204Z,45.40
2022-09-28T15:51:44.732Z,45.49
2022-09-28T15:54:11.029Z,45.56
2022-09-28T15:56:59.547Z,45.57
2022-09-28T15:59:29.353Z,45.57
2022-09-28T16:02:25.860Z,45.33
2022-09-28T16:04:55.309Z,45.28
2022-09-28T16:07:33.992Z,45.43
2022-09-28T16:10:04.585Z,45.40
2022-09-28T16:12:40.123Z,45.33
2022-09-28T16:15:14.781Z,45.27
2022-09-28T16:17:41.598Z,45.44
2022-09-28T16:20:37.731Z,45.35
2022-09-28T16:23:30.468Z,45.51
2022-09-28T16:25:58.951Z,45.44
2022-09-28T16:28:26.459Z,45.41
2022-09-28T16:31:00.532Z,45.48
2022-09-28T16:33:28.309Z,45.34
2022-09-28T16:35:54.568Z,45.41
2022-09-28T16:38:20.956Z,45.54
2022-09-28T16:40:52.662Z,45.42
2022-09-28T16:43:26.597Z,45.49
2022-09-28T16:45:57.914Z,45.56
2022-09-28T16:48:26.675Z,45.70
2022-09-28T16:50:52.886Z,45.75
2022-09-28T16:53:37.821Z,45.72
2022-09-28T16:56:04.632Z,45.61
2022-09-28T16:58:31.810Z,45.62
2022-09-28T17:00:58.408Z,45.83
2022-09-28T17:03:24.972Z,45.77
2022-09-28T17:05:51.581Z,45.74
2022-09-28T17:08:19.212Z,45.87
2022-09-28T17:13:39.249Z,45.91
2022-09-28T17:16:11.856Z,45.72
2022-09-28T17:18:39.953Z,46.00
2022-09-28T17:21:09.647Z,46.09
2022-09-28T17:23:35.885Z,45.88
2022-09-28T17:26:02.652Z,45.99
2022-09-28T17:28:31.261Z,45.98
2022-09-28T17:30:57.686Z,46.25
2022-09-28T17:33:24.249Z,46.14
2022-09-28T17:35:57.559Z,45.95
2022-09-28T17:38:23.979Z,46.16
2022-09-28T17:40:50.306Z,45.85
2022-09-28T17:43:16.641Z,46.19
2022-09-28T17:45:44.696Z,46.51
2022-09-28T17:48:12.898Z,46.49
2022-09-28T17:50:42.150Z,46.13
2022-09-28T17:53:11.039Z,46.20
2022-09-28T17:55:37.875Z,46.32
2022-09-28T17:58:16.678Z,46.14
2022-09-28T18:00:43.643Z,46.15
2022-09-28T18:03:14.245Z,46.20
2022-09-28T18:05:40.738Z,46.47
2022-09-28T18:08:06.965Z,46.36
2022-09-28T18:10:33.755Z,46.46
2022-09-28T18:12:59.956Z,46.08
2022-09-28T18:15:26.215Z,46.23
2022-09-28T18:17:52.449Z,46.01
2022-09-28T18:20:18.678Z,46.30
2022-09-28T18:22:44.910Z,46.11
2022-09-28T18:25:11.133Z,46.22
2022-09-28T18:27:37.442Z,46.02
2022-09-28T18:30:04.503Z,46.24
2022-09-28T18:32:30.798Z,45.94
2022-09-28T18:34:57.014Z,45.98
2022-09-28T18:37:23.293Z,45.89
2022-09-28T18:39:49.534Z,46.02
2022-09-28T18:42:15.864Z,46.20
2022-09-28T18:44:42.112Z,46.19
2022-09-28T18:47:08.325Z,46.33
2022-09-28T18:49:34.598Z,45.95
2022-09-28T18:52:01.388Z,45.95
2022-09-28T18:54:27.830Z,46.08
2022-09-28T18:56:56.145Z,46.28
2022-09-28T18:59:23.249Z,46.07
2022-09-28T19:01:49.650Z,46.18
2022-09-28T19:04:16.188Z,46.13
2022-09-28T19:06:44.276Z,46.09
2022-09-28T19:09:10.901Z,45.80
2022-09-28T19:11:37.106Z,46.25
2022-09-28T19:14:06.423Z,46.17
2022-09-28T19:16:33.989Z,45.99
2022-09-28T19:19:02.529Z,45.98
2022-09-28T19:21:29.190Z,46.32
2022-09-28T19:23:55.802Z,46.14
2022-09-28T19:26:23.381Z,46.40
2022-09-28T19:28:49.657Z,46.05
2022-09-28T19:31:16.584Z,45.96
2022-09-28T19:33:45.224Z,46.25
2022-09-28T19:36:12.578Z,46.16
2022-09-28T19:38:39.641Z,46.05
2022-09-28T19:41:09.573Z,46.23
2022-09-28T19:43:36.179Z,46.19
2022-09-28T19:46:04.310Z,46.18
2022-09-28T19:48:31.520Z,45.96
2022-09-28T19:50:59.001Z,46.31
2022-09-28T19:53:26.085Z,46.07
2022-09-28T19:55:53.781Z,46.29
2022-09-28T19:58:24.553Z,46.27
2022-09-28T20:00:51.152Z,46.66
2022-09-28T20:03:18.467Z,46.64
2022-09-28T20:05:45.377Z,46.55
2022-09-28T20:08:12.428Z,46.67
2022-09-28T20:10:39.117Z,46.80
2022-09-28T20:13:05.314Z,46.24
2022-09-28T20:15:31.600Z,46.45
2022-09-28T20:17:58.618Z,46.81
2022-09-28T20:20:28.533Z,46.45
2022-09-28T20:22:55.025Z,46.67
2022-09-28T20:25:21.297Z,46.41
2022-09-28T20:27:47.531Z,46.52
2022-09-28T20:30:13.859Z,46.75
2022-09-28T20:32:40.055Z,46.61
2022-09-28T20:35:06.649Z,46.92
2022-09-28T20:37:33.392Z,46.53
2022-09-28T20:40:01.439Z,46.34
2022-09-28T20:42:27.684Z,46.84
2022-09-28T20:44:53.908Z,46.52
2022-09-28T20:47:20.111Z,46.83
2022-09-28T20:49:46.370Z,46.45
2022-09-28T20:52:12.571Z,46.52
2022-09-28T20:54:38.773Z,46.52
2022-09-28T20:57:17.148Z,46.36
2022-09-28T20:59:44.280Z,47.02
2022-09-28T21:02:14.998Z,46.67
2022-09-28T21:04:41.499Z,46.71
2022-09-28T21:07:08.533Z,46.75
2022-09-28T21:09:35.080Z,46.82
2022-09-28T21:12:01.783Z,46.61
2022-09-28T21:14:28.000Z,46.76
2022-09-28T21:16:54.204Z,46.93
2022-09-28T21:19:24.167Z,46.90
2022-09-28T21:21:50.709Z,46.80
2022-09-28T21:24:16.986Z,46.85
2022-09-28T21:26:43.218Z,46.78
2022-09-28T21:29:13.684Z,46.85
2022-09-28T21:31:45.590Z,46.91
2022-09-28T21:34:13.261Z,46.59
2022-09-28T21:36:39.805Z,46.89
2022-09-28T21:39:09.622Z,46.71
2022-09-28T21:41:36.666Z,46.98
2022-09-28T21:44:02.945Z,46.67
2022-09-28T21:46:33.980Z,47.01
2022-09-28T21:49:01.373Z,47.04
2022-09-28T21:51:28.029Z,46.84
2022-09-28T21:53:54.234Z,47.18
2022-09-28T21:56:20.938Z,47.25
2022-09-28T21:58:47.253Z,47.23
2022-09-28T22:01:15.350Z,47.31
2022-09-28T22:03:42.499Z,46.97
2022-09-28T22:06:09.301Z,47.19
2022-09-28T22:08:36.144Z,46.92
2022-09-28T22:11:05.863Z,47.22
2022-09-28T22:13:36.375Z,47.26
2022-09-28T22:16:03.170Z,47.05
2022-09-28T22:18:30.508Z,46.97
2022-09-28T22:21:10.874Z,47.11
2022-09-28T22:23:37.827Z,47.13
2022-09-28T22:26:06.936Z,46.78
2022-09-28T22:28:33.665Z,46.77
2022-09-28T22:31:00.034Z,47.17
2022-09-28T22:33:26.769Z,47.21
2022-09-28T22:35:53.395Z,46.70
2022-09-28T22:38:20.513Z,46.93
2022-09-28T22:40:56.960Z,47.01
2022-09-28T22:43:23.745Z,46.67
2022-09-28T22:45:50.146Z,46.82
2022-09-28T22:48:16.426Z,46.79
2022-09-28T22:50:50.177Z,46.87
2022-09-28T22:53:16.435Z,46.68
2022-09-28T22:55:42.663Z,46.40
2022-09-28T22:58:08.907Z,46.49
2022-09-28T23:00:35.318Z,46.50
2022-09-28T23:03:01.796Z,46.50
2022-09-28T23:05:28.061Z,46.82
2022-09-28T23:07:54.293Z,46.42
2022-09-28T23:10:20.621Z,46.60
2022-09-28T23:12:46.842Z,46.72
2022-09-28T23:15:13.651Z,46.92
2022-09-28T23:17:39.864Z,46.65
2022-09-28T23:20:06.266Z,46.90
2022-09-28T23:22:32.475Z,46.38
2022-09-28T23:24:58.701Z,46.76
2022-09-28T23:27:24.944Z,46.88
2022-09-28T23:29:53.706Z,46.95
2022-09-28T23:32:20.073Z,46.76
2022-09-28T23:34:46.513Z,46.99
2022-09-28T23:37:12.732Z,46.89
2022-09-28T23:39:39.001Z,46.73
2022-09-28T23:42:05.581Z,46.73
2022-09-28T23:44:32.615Z,46.82
2022-09-28T23:46:58.853Z,46.81
2022-09-28T23:49:25.058Z,47.02
2022-09-28T23:51:51.286Z,46.86
2022-09-28T23:54:18.097Z,46.89
2022-09-28T23:56:44.303Z,47.04
2022-09-28T23:59:10.541Z,47.23
